sensor_id;sensor_type;location;lat;lon;timestamp;pressure;altitude;pressure_sealevel;temperature;humidity
70240;BME280;57629;52.256;10.414;2022-07-29T00:00:30;101178.81;;;23.16;43.00
70240;BME280;57629;52.256;10.414;2022-07-29T00:01:32;101180.44;;;23.17;43.00
70240;BME280;57629;52.256;10.414;2022-07-29T00:02:33;101174.50;;;23.15;42.91
70240;BME280;57629;52.256;10.414;2022-07-29T00:03:34;101174.50;;;23.15;43.05
70240;BME280;57629;52.256;10.414;2022-07-29T00:04:36;101172.63;;;23.15;42.94
70240;BME280;57629;52.256;10.414;2022-07-29T00:05:38;101174.50;;;23.15;42.89
70240;BME280;57629;52.256;10.414;2022-07-29T00:06:39;101173.69;;;23.14;42.96
70240;BME280;57629;52.256;10.414;2022-07-29T00:07:40;101173.69;;;23.14;43.25
70240;BME280;57629;52.256;10.414;2022-07-29T00:08:40;101170.22;;;23.14;42.98
70240;BME280;57629;52.256;10.414;2022-07-29T00:09:41;101169.94;;;23.15;43.04
70240;BME280;57629;52.256;10.414;2022-07-29T00:10:42;101169.41;;;23.13;42.93
70240;BME280;57629;52.256;10.414;2022-07-29T00:11:43;101166.75;;;23.13;42.91
70240;BME280;57629;52.256;10.414;2022-07-29T00:12:44;101168.34;;;23.14;42.87
70240;BME280;57629;52.256;10.414;2022-07-29T00:13:44;101164.88;;;23.14;43.04
70240;BME280;57629;52.256;10.414;2022-07-29T00:14:45;101162.19;;;23.14;43.03
70240;BME280;57629;52.256;10.414;2022-07-29T00:15:45;101156.81;;;23.14;43.16
70240;BME280;57629;52.256;10.414;2022-07-29T00:16:47;101164.06;;;23.13;42.93
70240;BME280;57629;52.256;10.414;2022-07-29T00:17:48;101167.53;;;23.14;42.99
70240;BME280;57629;52.256;10.414;2022-07-29T00:18:49;101160.31;;;23.14;42.85
70240;BME280;57629;52.256;10.414;2022-07-29T00:19:49;101154.38;;;23.12;42.97
70240;BME280;57629;52.256;10.414;2022-07-29T00:20:50;101159.50;;;23.14;43.11
70240;BME280;57629;52.256;10.414;2022-07-29T00:21:51;101164.06;;;23.13;42.96
70240;BME280;57629;52.256;10.414;2022-07-29T00:22:51;101154.38;;;23.12;42.93
70240;BME280;57629;52.256;10.414;2022-07-29T00:23:52;101152.78;;;23.11;42.90
70240;BME280;57629;52.256;10.414;2022-07-29T00:24:54;101151.72;;;23.12;42.92
70240;BME280;57629;52.256;10.414;2022-07-29T00:25:55;101149.03;;;23.12;42.98
70240;BME280;57629;52.256;10.414;2022-07-29T00:26:55;101148.22;;;23.12;43.00
70240;BME280;57629;52.256;10.414;2022-07-29T00:27:56;101142.88;;;23.12;43.03
70240;BME280;57629;52.256;10.414;2022-07-29T00:28:57;101145.53;;;23.12;42.97
70240;BME280;57629;52.256;10.414;2022-07-29T00:29:58;101140.19;;;23.12;43.03
70240;BME280;57629;52.256;10.414;2022-07-29T00:30:59;101143.66;;;23.12;42.92
70240;BME280;57629;52.256;10.414;2022-07-29T00:32:01;101137.50;;;23.12;42.79
70240;BME280;57629;52.256;10.414;2022-07-29T00:33:02;101139.38;;;23.11;42.96
70240;BME280;57629;52.256;10.414;2022-07-29T00:34:02;101138.59;;;23.11;42.85
70240;BME280;57629;52.256;10.414;2022-07-29T00:35:04;101148.47;;;23.10;42.97
70240;BME280;57629;52.256;10.414;2022-07-29T00:36:05;101140.44;;;23.10;42.88
70240;BME280;57629;52.256;10.414;2022-07-29T00:37:05;101146.63;;;23.11;43.13
70240;BME280;57629;52.256;10.414;2022-07-29T00:38:06;101143.94;;;23.11;42.93
70240;BME280;57629;52.256;10.414;2022-07-29T00:39:07;101137.75;;;23.10;43.02
70240;BME280;57629;52.256;10.414;2022-07-29T00:40:08;101139.63;;;23.10;42.87
70240;BME280;57629;52.256;10.414;2022-07-29T00:41:09;101136.94;;;23.10;43.02
70240;BME280;57629;52.256;10.414;2022-07-29T00:42:09;101131.59;;;23.10;42.83
70240;BME280;57629;52.256;10.414;2022-07-29T00:43:10;101123.56;;;23.10;42.85
70240;BME280;57629;52.256;10.414;2022-07-29T00:44:11;101125.44;;;23.09;42.93
70240;BME280;57629;52.256;10.414;2022-07-29T00:45:13;101129.72;;;23.10;42.88
70240;BME280;57629;52.256;10.414;2022-07-29T00:46:14;101124.63;;;23.09;42.77
70240;BME280;57629;52.256;10.414;2022-07-29T00:47:16;101123.56;;;23.10;42.90
70240;BME280;57629;52.256;10.414;2022-07-29T00:48:17;101122.75;;;23.09;42.88
70240;BME280;57629;52.256;10.414;2022-07-29T00:49:17;101121.94;;;23.09;42.81
70240;BME280;57629;52.256;10.414;2022-07-29T00:50:18;101121.69;;;23.10;42.82
70240;BME280;57629;52.256;10.414;2022-07-29T00:51:19;101121.94;;;23.09;42.94
70240;BME280;57629;52.256;10.414;2022-07-29T00:52:20;101121.94;;;23.09;42.79
70240;BME280;57629;52.256;10.414;2022-07-29T00:53:21;101122.75;;;23.09;43.13
70240;BME280;57629;52.256;10.414;2022-07-29T00:54:22;101128.09;;;23.09;42.79
70240;BME280;57629;52.256;10.414;2022-07-29T00:55:23;101122.75;;;23.09;42.92
70240;BME280;57629;52.256;10.414;2022-07-29T00:56:24;101122.75;;;23.09;43.02
70240;BME280;57629;52.256;10.414;2022-07-29T00:57:25;101118.47;;;23.08;42.88
70240;BME280;57629;52.256;10.414;2022-07-29T00:58:26;101105.88;;;23.09;42.92
70240;BME280;57629;52.256;10.414;2022-07-29T00:59:27;101120.88;;;23.10;42.82
70240;BME280;57629;52.256;10.414;2022-07-29T01:00:29;101111.22;;;23.09;42.76
70240;BME280;57629;52.256;10.414;2022-07-29T01:01:30;101118.47;;;23.08;42.99
70240;BME280;57629;52.256;10.414;2022-07-29T01:02:32;101120.31;;;23.08;42.75
70240;BME280;57629;52.256;10.414;2022-07-29T01:03:32;101124.63;;;23.09;42.62
70240;BME280;57629;52.256;10.414;2022-07-29T01:04:33;101115.78;;;23.08;43.06
70240;BME280;57629;52.256;10.414;2022-07-29T01:05:34;101118.47;;;23.08;42.78
70240;BME280;57629;52.256;10.414;2022-07-29T01:06:35;101111.22;;;23.09;42.97
70240;BME280;57629;52.256;10.414;2022-07-29T01:07:36;101104.25;;;23.08;42.66
70240;BME280;57629;52.256;10.414;2022-07-29T01:08:37;101113.91;;;23.09;42.76
70240;BME280;57629;52.256;10.414;2022-07-29T01:09:38;101117.38;;;23.09;42.85
70240;BME280;57629;52.256;10.414;2022-07-29T01:10:41;101112.03;;;23.09;42.79
70240;BME280;57629;52.256;10.414;2022-07-29T01:11:43;101119.28;;;23.09;42.86
70240;BME280;57629;52.256;10.414;2022-07-29T01:12:46;101117.38;;;23.09;42.78
70240;BME280;57629;52.256;10.414;2022-07-29T01:13:48;101105.88;;;23.09;42.73
70240;BME280;57629;52.256;10.414;2022-07-29T01:14:49;101107.75;;;23.08;42.77
70240;BME280;57629;52.256;10.414;2022-07-29T01:15:56;101108.56;;;23.09;42.79
70240;BME280;57629;52.256;10.414;2022-07-29T01:17:02;101112.84;;;23.10;42.73
70240;BME280;57629;52.256;10.414;2022-07-29T01:18:17;101109.34;;;23.09;42.55
70240;BME280;57629;52.256;10.414;2022-07-29T01:19:45;101109.34;;;23.09;42.88
70240;BME280;57629;52.256;10.414;2022-07-29T01:22:26;101100.53;;;23.09;42.73
70240;BME280;57629;52.256;10.414;2022-07-29T01:23:49;101097.84;;;23.09;42.83
70240;BME280;57629;52.256;10.414;2022-07-29T01:25:10;101095.97;;;23.09;42.78
70240;BME280;57629;52.256;10.414;2022-07-29T01:26:27;101096.75;;;23.10;42.80
70240;BME280;57629;52.256;10.414;2022-07-29T01:27:41;101094.34;;;23.08;42.91
70240;BME280;57629;52.256;10.414;2022-07-29T01:28:58;101093.53;;;23.08;42.82
70240;BME280;57629;52.256;10.414;2022-07-29T01:30:02;101090.84;;;23.08;42.89
70240;BME280;57629;52.256;10.414;2022-07-29T01:31:04;101094.34;;;23.08;42.86
70240;BME280;57629;52.256;10.414;2022-07-29T01:32:08;101093.53;;;23.08;42.84
70240;BME280;57629;52.256;10.414;2022-07-29T01:33:12;101094.34;;;23.08;42.74
70240;BME280;57629;52.256;10.414;2022-07-29T01:34:20;101092.72;;;23.07;42.85
70240;BME280;57629;52.256;10.414;2022-07-29T01:35:24;101089.25;;;23.07;42.71
70240;BME280;57629;52.256;10.414;2022-07-29T01:36:30;101088.16;;;23.08;42.81
70240;BME280;57629;52.256;10.414;2022-07-29T01:37:38;101090.84;;;23.08;42.84
70240;BME280;57629;52.256;10.414;2022-07-29T01:38:42;101088.16;;;23.08;42.95
70240;BME280;57629;52.256;10.414;2022-07-29T01:39:46;101091.91;;;23.07;42.80
70240;BME280;57629;52.256;10.414;2022-07-29T01:40:51;101088.44;;;23.06;42.96
70240;BME280;57629;52.256;10.414;2022-07-29T01:41:59;101083.09;;;23.06;42.70
70240;BME280;57629;52.256;10.414;2022-07-29T01:43:07;101084.97;;;23.06;42.75
70240;BME280;57629;52.256;10.414;2022-07-29T01:44:14;101088.44;;;23.06;42.82
70240;BME280;57629;52.256;10.414;2022-07-29T01:45:19;101084.97;;;23.06;42.99
70240;BME280;57629;52.256;10.414;2022-07-29T01:46:24;101076.91;;;23.06;42.93
70240;BME280;57629;52.256;10.414;2022-07-29T01:47:32;101086.56;;;23.07;42.99
70240;BME280;57629;52.256;10.414;2022-07-29T01:48:38;101076.66;;;23.07;42.91
70240;BME280;57629;52.256;10.414;2022-07-29T01:49:45;101074.25;;;23.06;42.85
70240;BME280;57629;52.256;10.414;2022-07-29T01:50:50;101077.97;;;23.05;42.76
70240;BME280;57629;52.256;10.414;2022-07-29T01:51:54;101075.28;;;23.05;42.97
70240;BME280;57629;52.256;10.414;2022-07-29T01:52:59;101072.59;;;23.05;43.07
70240;BME280;57629;52.256;10.414;2022-07-29T01:54:05;101069.13;;;23.04;43.00
70240;BME280;57629;52.256;10.414;2022-07-29T01:55:11;101068.88;;;23.06;43.11
70240;BME280;57629;52.256;10.414;2022-07-29T01:56:14;101071.81;;;23.04;43.00
70240;BME280;57629;52.256;10.414;2022-07-29T01:57:18;101065.66;;;23.04;42.88
70240;BME280;57629;52.256;10.414;2022-07-29T01:58:21;101062.16;;;23.03;42.89
70240;BME280;57629;52.256;10.414;2022-07-29T01:59:25;101070.19;;;23.03;42.90
70240;BME280;57629;52.256;10.414;2022-07-29T02:00:27;101068.31;;;23.04;42.93
70240;BME280;57629;52.256;10.414;2022-07-29T02:01:29;101074.72;;;23.03;43.02
70240;BME280;57629;52.256;10.414;2022-07-29T02:02:35;101070.19;;;23.03;43.11
70240;BME280;57629;52.256;10.414;2022-07-29T02:03:39;101071.81;;;23.04;42.71
70240;BME280;57629;52.256;10.414;2022-07-29T02:04:44;101064.84;;;23.03;42.92
70240;BME280;57629;52.256;10.414;2022-07-29T02:05:48;101067.53;;;23.03;42.88
70240;BME280;57629;52.256;10.414;2022-07-29T02:06:53;101063.22;;;23.02;42.91
70240;BME280;57629;52.256;10.414;2022-07-29T02:07:55;101073.94;;;23.02;42.87
70240;BME280;57629;52.256;10.414;2022-07-29T02:08:58;101062.41;;;23.02;42.87
70240;BME280;57629;52.256;10.414;2022-07-29T02:10:01;101069.38;;;23.03;42.79
70240;BME280;57629;52.256;10.414;2022-07-29T02:11:04;101068.56;;;23.02;42.86
70240;BME280;57629;52.256;10.414;2022-07-29T02:12:07;101065.09;;;23.02;42.87
70240;BME280;57629;52.256;10.414;2022-07-29T02:13:11;101073.13;;;23.02;42.78
70240;BME280;57629;52.256;10.414;2022-07-29T02:14:14;101067.78;;;23.02;42.89
70240;BME280;57629;52.256;10.414;2022-07-29T02:15:18;101066.69;;;23.03;42.87
70240;BME280;57629;52.256;10.414;2022-07-29T02:16:21;101073.13;;;23.02;42.85
70240;BME280;57629;52.256;10.414;2022-07-29T02:17:26;101062.41;;;23.02;42.97
70240;BME280;57629;52.256;10.414;2022-07-29T02:18:28;101053.56;;;23.01;42.87
70240;BME280;57629;52.256;10.414;2022-07-29T02:19:32;101052.78;;;23.00;42.90
70240;BME280;57629;52.256;10.414;2022-07-29T02:20:33;101047.41;;;23.00;42.90
70240;BME280;57629;52.256;10.414;2022-07-29T02:21:35;101048.47;;;22.99;42.82
70240;BME280;57629;52.256;10.414;2022-07-29T02:22:38;101051.94;;;23.00;42.91
70240;BME280;57629;52.256;10.414;2022-07-29T02:23:41;101049.25;;;23.00;42.85
70240;BME280;57629;52.256;10.414;2022-07-29T02:24:44;101049.25;;;23.00;42.79
70240;BME280;57629;52.256;10.414;2022-07-29T02:25:46;101043.09;;;22.99;42.90
70240;BME280;57629;52.256;10.414;2022-07-29T02:26:49;101046.59;;;23.00;42.76
70240;BME280;57629;52.256;10.414;2022-07-29T02:27:51;101039.38;;;23.00;42.91
70240;BME280;57629;52.256;10.414;2022-07-29T02:28:55;101036.69;;;23.00;42.88
70240;BME280;57629;52.256;10.414;2022-07-29T02:29:57;101044.72;;;23.00;42.75
70240;BME280;57629;52.256;10.414;2022-07-29T02:31:02;101034.25;;;22.99;42.99
70240;BME280;57629;52.256;10.414;2022-07-29T02:32:03;101029.72;;;22.99;42.78
70240;BME280;57629;52.256;10.414;2022-07-29T02:33:05;101037.75;;;22.99;42.86
70240;BME280;57629;52.256;10.414;2022-07-29T02:34:08;101030.78;;;22.98;42.83
70240;BME280;57629;52.256;10.414;2022-07-29T02:35:13;101028.91;;;22.99;42.96
70240;BME280;57629;52.256;10.414;2022-07-29T02:36:15;101032.38;;;22.99;42.79
70240;BME280;57629;52.256;10.414;2022-07-29T02:37:18;101030.78;;;22.98;42.90
70240;BME280;57629;52.256;10.414;2022-07-29T02:38:21;101035.88;;;23.00;42.85
70240;BME280;57629;52.256;10.414;2022-07-29T02:39:24;101024.59;;;22.98;42.95
70240;BME280;57629;52.256;10.414;2022-07-29T02:40:26;101023.56;;;22.99;42.85
70240;BME280;57629;52.256;10.414;2022-07-29T02:41:29;101029.94;;;22.98;42.83
70240;BME280;57629;52.256;10.414;2022-07-29T02:42:31;101034.25;;;22.99;42.75
70240;BME280;57629;52.256;10.414;2022-07-29T02:43:33;101033.47;;;22.98;42.86
70240;BME280;57629;52.256;10.414;2022-07-29T02:44:38;101031.00;;;22.97;42.69
70240;BME280;57629;52.256;10.414;2022-07-29T02:45:39;101035.31;;;22.98;42.79
70240;BME280;57629;52.256;10.414;2022-07-29T02:46:46;101025.44;;;22.98;42.83
70240;BME280;57629;52.256;10.414;2022-07-29T02:47:49;101028.09;;;22.98;42.80
70240;BME280;57629;52.256;10.414;2022-07-29T02:48:56;101034.50;;;22.97;42.78
70240;BME280;57629;52.256;10.414;2022-07-29T02:50:02;101031.00;;;22.97;42.83
70240;BME280;57629;52.256;10.414;2022-07-29T02:51:08;101034.50;;;22.97;42.76
70240;BME280;57629;52.256;10.414;2022-07-29T02:52:17;101038.22;;;22.96;42.71
70240;BME280;57629;52.256;10.414;2022-07-29T02:53:21;101039.03;;;22.97;42.66
70240;BME280;57629;52.256;10.414;2022-07-29T02:54:27;101038.00;;;22.98;42.65
70240;BME280;57629;52.256;10.414;2022-07-29T02:55:33;101045.22;;;22.97;42.70
70240;BME280;57629;52.256;10.414;2022-07-29T02:56:35;101043.59;;;22.96;42.83
70240;BME280;57629;52.256;10.414;2022-07-29T02:57:41;101040.09;;;22.96;42.56
70240;BME280;57629;52.256;10.414;2022-07-29T02:58:46;101044.63;;;22.95;42.65
70240;BME280;57629;52.256;10.414;2022-07-29T02:59:51;101041.72;;;22.97;42.75
70240;BME280;57629;52.256;10.414;2022-07-29T03:00:53;101045.47;;;22.96;42.64
70240;BME280;57629;52.256;10.414;2022-07-29T03:01:58;101048.94;;;22.96;42.78
70240;BME280;57629;52.256;10.414;2022-07-29T03:03:03;101043.59;;;22.96;42.70
70240;BME280;57629;52.256;10.414;2022-07-29T03:04:04;101043.59;;;22.96;42.71
70240;BME280;57629;52.256;10.414;2022-07-29T03:05:08;101041.94;;;22.95;42.63
70240;BME280;57629;52.256;10.414;2022-07-29T03:06:13;101044.63;;;22.95;42.61
70240;BME280;57629;52.256;10.414;2022-07-29T03:07:18;101048.94;;;22.96;42.71
70240;BME280;57629;52.256;10.414;2022-07-29T03:08:20;101041.94;;;22.95;42.67
70240;BME280;57629;52.256;10.414;2022-07-29T03:09:23;101045.47;;;22.96;42.64
70240;BME280;57629;52.256;10.414;2022-07-29T03:10:25;101035.53;;;22.96;42.76
70240;BME280;57629;52.256;10.414;2022-07-29T03:11:25;101034.75;;;22.96;42.67
70240;BME280;57629;52.256;10.414;2022-07-29T03:12:27;101041.94;;;22.95;42.63
70240;BME280;57629;52.256;10.414;2022-07-29T03:13:29;101046.25;;;22.96;42.96
70240;BME280;57629;52.256;10.414;2022-07-29T03:14:31;101036.59;;;22.95;42.78
70240;BME280;57629;52.256;10.414;2022-07-29T03:15:32;101039.28;;;22.95;42.70
70240;BME280;57629;52.256;10.414;2022-07-29T03:16:33;101042.78;;;22.96;42.78
70240;BME280;57629;52.256;10.414;2022-07-29T03:17:36;101038.47;;;22.95;42.67
70240;BME280;57629;52.256;10.414;2022-07-29T03:18:38;101039.28;;;22.95;42.59
70240;BME280;57629;52.256;10.414;2022-07-29T03:19:39;101040.09;;;22.96;42.74
70240;BME280;57629;52.256;10.414;2022-07-29T03:20:40;101037.44;;;22.96;42.70
70240;BME280;57629;52.256;10.414;2022-07-29T03:21:41;101038.22;;;22.96;42.79
70240;BME280;57629;52.256;10.414;2022-07-29T03:22:42;101039.03;;;22.97;42.78
70240;BME280;57629;52.256;10.414;2022-07-29T03:23:43;101032.88;;;22.96;42.80
70240;BME280;57629;52.256;10.414;2022-07-29T03:24:44;101038.22;;;22.96;42.74
70240;BME280;57629;52.256;10.414;2022-07-29T03:25:45;101038.22;;;22.96;42.83
70240;BME280;57629;52.256;10.414;2022-07-29T03:26:46;101031.81;;;22.97;42.71
70240;BME280;57629;52.256;10.414;2022-07-29T03:27:47;101035.31;;;22.98;42.85
70240;BME280;57629;52.256;10.414;2022-07-29T03:28:48;101034.50;;;22.97;42.69
70240;BME280;57629;52.256;10.414;2022-07-29T03:29:48;101031.81;;;22.97;42.69
70240;BME280;57629;52.256;10.414;2022-07-29T03:30:49;101034.50;;;22.97;42.73
70240;BME280;57629;52.256;10.414;2022-07-29T03:31:50;101031.81;;;22.97;43.07
70240;BME280;57629;52.256;10.414;2022-07-29T03:32:52;101031.00;;;22.97;42.71
70240;BME280;57629;52.256;10.414;2022-07-29T03:33:53;101031.81;;;22.97;42.76
70240;BME280;57629;52.256;10.414;2022-07-29T03:34:54;101029.16;;;22.97;42.80
70240;BME280;57629;52.256;10.414;2022-07-29T03:35:54;101029.16;;;22.97;42.91
70240;BME280;57629;52.256;10.414;2022-07-29T03:36:58;101019.47;;;22.96;42.92
70240;BME280;57629;52.256;10.414;2022-07-29T03:37:58;101028.31;;;22.97;42.81
70240;BME280;57629;52.256;10.414;2022-07-29T03:39:00;101022.97;;;22.97;42.81
70240;BME280;57629;52.256;10.414;2022-07-29T03:40:03;101023.78;;;22.97;42.86
70240;BME280;57629;52.256;10.414;2022-07-29T03:41:09;101023.78;;;22.97;42.66
70240;BME280;57629;52.256;10.414;2022-07-29T03:42:12;101025.63;;;22.97;42.87
70240;BME280;57629;52.256;10.414;2022-07-29T03:43:15;101026.47;;;22.97;42.83
70240;BME280;57629;52.256;10.414;2022-07-29T03:44:17;101022.97;;;22.97;42.87
70240;BME280;57629;52.256;10.414;2022-07-29T03:45:20;101019.47;;;22.96;42.84
70240;BME280;57629;52.256;10.414;2022-07-29T03:46:23;101021.13;;;22.97;42.86
70240;BME280;57629;52.256;10.414;2022-07-29T03:47:28;101019.47;;;22.96;42.79
70240;BME280;57629;52.256;10.414;2022-07-29T03:48:33;101022.97;;;22.97;42.91
70240;BME280;57629;52.256;10.414;2022-07-29T03:49:36;101022.16;;;22.96;42.84
70240;BME280;57629;52.256;10.414;2022-07-29T03:50:37;101024.59;;;22.98;42.66
70240;BME280;57629;52.256;10.414;2022-07-29T03:51:38;101023.78;;;22.97;42.79
70240;BME280;57629;52.256;10.414;2022-07-29T03:52:39;101016.00;;;22.96;42.79
70240;BME280;57629;52.256;10.414;2022-07-29T03:53:40;101019.47;;;22.96;42.77
70240;BME280;57629;52.256;10.414;2022-07-29T03:54:41;101016.00;;;22.96;42.92
70240;BME280;57629;52.256;10.414;2022-07-29T03:55:47;101019.47;;;22.96;42.80
70240;BME280;57629;52.256;10.414;2022-07-29T03:56:50;101024.84;;;22.96;42.73
70240;BME280;57629;52.256;10.414;2022-07-29T03:57:57;101024.84;;;22.96;42.90
70240;BME280;57629;52.256;10.414;2022-07-29T03:58:58;101024.03;;;22.96;43.00
70240;BME280;57629;52.256;10.414;2022-07-29T04:00:00;101025.88;;;22.95;42.82
70240;BME280;57629;52.256;10.414;2022-07-29T04:01:01;101025.88;;;22.95;42.89
70240;BME280;57629;52.256;10.414;2022-07-29T04:02:03;101020.53;;;22.95;43.10
70240;BME280;57629;52.256;10.414;2022-07-29T04:03:05;101025.06;;;22.95;43.16
70240;BME280;57629;52.256;10.414;2022-07-29T04:04:07;101026.72;;;22.96;42.86
70240;BME280;57629;52.256;10.414;2022-07-29T04:05:12;101021.59;;;22.94;42.68
70240;BME280;57629;52.256;10.414;2022-07-29T04:06:13;101020.78;;;22.94;42.71
70240;BME280;57629;52.256;10.414;2022-07-29T04:07:14;101016.25;;;22.94;42.81
70240;BME280;57629;52.256;10.414;2022-07-29T04:08:15;101012.75;;;22.94;42.75
70240;BME280;57629;52.256;10.414;2022-07-29T04:09:15;101021.84;;;22.93;42.96
70240;BME280;57629;52.256;10.414;2022-07-29T04:10:18;101018.13;;;22.94;42.81
70240;BME280;57629;52.256;10.414;2022-07-29T04:11:19;101019.72;;;22.95;42.89
70240;BME280;57629;52.256;10.414;2022-07-29T04:12:19;101017.03;;;22.95;42.85
70240;BME280;57629;52.256;10.414;2022-07-29T04:13:20;101015.44;;;22.94;42.74
70240;BME280;57629;52.256;10.414;2022-07-29T04:14:21;101024.28;;;22.94;42.70
70240;BME280;57629;52.256;10.414;2022-07-29T04:15:21;101018.91;;;22.94;42.75
70240;BME280;57629;52.256;10.414;2022-07-29T04:16:22;101020.00;;;22.93;42.82
70240;BME280;57629;52.256;10.414;2022-07-29T04:17:23;101020.00;;;22.93;42.79
70240;BME280;57629;52.256;10.414;2022-07-29T04:18:23;101028.03;;;22.93;42.93
70240;BME280;57629;52.256;10.414;2022-07-29T04:19:26;101023.47;;;22.94;42.82
70240;BME280;57629;52.256;10.414;2022-07-29T04:20:26;101025.34;;;22.93;42.87
70240;BME280;57629;52.256;10.414;2022-07-29T04:21:27;101028.84;;;22.94;42.90
70240;BME280;57629;52.256;10.414;2022-07-29T04:22:28;101033.38;;;22.93;42.88
70240;BME280;57629;52.256;10.414;2022-07-29T04:23:29;101021.84;;;22.93;42.76
70240;BME280;57629;52.256;10.414;2022-07-29T04:24:30;101020.78;;;22.94;42.96
70240;BME280;57629;52.256;10.414;2022-07-29T04:25:30;101021.03;;;22.92;42.80
70240;BME280;57629;52.256;10.414;2022-07-29T04:26:31;101028.28;;;22.92;42.80
70240;BME280;57629;52.256;10.414;2022-07-29T04:27:33;101029.06;;;22.92;42.79
70240;BME280;57629;52.256;10.414;2022-07-29T04:28:34;101030.94;;;22.92;42.82
70240;BME280;57629;52.256;10.414;2022-07-29T04:29:34;101028.28;;;22.92;42.63
70240;BME280;57629;52.256;10.414;2022-07-29T04:30:36;101022.91;;;22.92;42.73
70240;BME280;57629;52.256;10.414;2022-07-29T04:31:37;101025.59;;;22.92;42.80
70240;BME280;57629;52.256;10.414;2022-07-29T04:32:38;101022.91;;;22.92;42.89
70240;BME280;57629;52.256;10.414;2022-07-29T04:33:39;101024.78;;;22.91;42.95
70240;BME280;57629;52.256;10.414;2022-07-29T04:34:41;101026.66;;;22.91;42.91
70240;BME280;57629;52.256;10.414;2022-07-29T04:35:41;101026.66;;;22.91;42.90
70240;BME280;57629;52.256;10.414;2022-07-29T04:36:42;101029.34;;;22.91;42.81
70240;BME280;57629;52.256;10.414;2022-07-29T04:37:43;101032.81;;;22.91;42.88
70240;BME280;57629;52.256;10.414;2022-07-29T04:38:43;101031.19;;;22.90;42.82
70240;BME280;57629;52.256;10.414;2022-07-29T04:39:44;101029.34;;;22.91;42.88
70240;BME280;57629;52.256;10.414;2022-07-29T04:40:45;101027.47;;;22.91;42.82
70240;BME280;57629;52.256;10.414;2022-07-29T04:41:45;101030.16;;;22.91;42.96
70240;BME280;57629;52.256;10.414;2022-07-29T04:42:46;101036.31;;;22.92;42.91
70240;BME280;57629;52.256;10.414;2022-07-29T04:43:46;101029.34;;;22.91;42.81
70240;BME280;57629;52.256;10.414;2022-07-29T04:44:47;101028.50;;;22.90;42.68
70240;BME280;57629;52.256;10.414;2022-07-29T04:45:48;101029.34;;;22.91;42.68
70240;BME280;57629;52.256;10.414;2022-07-29T04:46:48;101027.72;;;22.90;42.77
70240;BME280;57629;52.256;10.414;2022-07-29T04:47:55;101034.69;;;22.91;43.10
70240;BME280;57629;52.256;10.414;2022-07-29T04:48:56;101032.81;;;22.91;42.73
70240;BME280;57629;52.256;10.414;2022-07-29T04:49:58;101035.50;;;22.91;42.80
70240;BME280;57629;52.256;10.414;2022-07-29T04:50:58;101027.72;;;22.90;42.89
70240;BME280;57629;52.256;10.414;2022-07-29T04:51:59;101033.06;;;22.90;42.94
70240;BME280;57629;52.256;10.414;2022-07-29T04:53:00;101036.53;;;22.90;43.10
70240;BME280;57629;52.256;10.414;2022-07-29T04:54:01;101028.50;;;22.90;42.97
70240;BME280;57629;52.256;10.414;2022-07-29T04:55:02;101033.88;;;22.90;43.06
70240;BME280;57629;52.256;10.414;2022-07-29T04:56:03;101034.69;;;22.91;42.95
70240;BME280;57629;52.256;10.414;2022-07-29T04:57:04;101030.38;;;22.90;43.00
70240;BME280;57629;52.256;10.414;2022-07-29T04:58:06;101027.72;;;22.90;42.96
70240;BME280;57629;52.256;10.414;2022-07-29T04:59:08;101032.25;;;22.89;42.99
70240;BME280;57629;52.256;10.414;2022-07-29T05:00:09;101033.06;;;22.90;43.11
70240;BME280;57629;52.256;10.414;2022-07-29T05:01:10;101033.06;;;22.90;43.02
70240;BME280;57629;52.256;10.414;2022-07-29T05:02:10;101029.59;;;22.89;43.02
70240;BME280;57629;52.256;10.414;2022-07-29T05:03:11;101027.72;;;22.90;42.92
70240;BME280;57629;52.256;10.414;2022-07-29T05:04:12;101028.50;;;22.90;43.04
70240;BME280;57629;52.256;10.414;2022-07-29T05:05:14;101028.50;;;22.90;42.99
70240;BME280;57629;52.256;10.414;2022-07-29T05:06:14;101026.66;;;22.91;43.04
70240;BME280;57629;52.256;10.414;2022-07-29T05:07:15;101025.84;;;22.90;43.09
70240;BME280;57629;52.256;10.414;2022-07-29T05:08:19;101022.13;;;22.91;43.12
70240;BME280;57629;52.256;10.414;2022-07-29T05:09:19;101025.59;;;22.92;43.09
70240;BME280;57629;52.256;10.414;2022-07-29T05:10:20;101018.63;;;22.91;43.23
70240;BME280;57629;52.256;10.414;2022-07-29T05:11:20;101024.78;;;22.91;43.20
70240;BME280;57629;52.256;10.414;2022-07-29T05:12:21;101025.59;;;22.92;43.17
70240;BME280;57629;52.256;10.414;2022-07-29T05:13:22;101019.44;;;22.91;43.04
70240;BME280;57629;52.256;10.414;2022-07-29T05:14:22;101023.16;;;22.90;43.08
70240;BME280;57629;52.256;10.414;2022-07-29T05:15:23;101019.44;;;22.91;43.03
70240;BME280;57629;52.256;10.414;2022-07-29T05:16:24;101020.47;;;22.90;43.02
70240;BME280;57629;52.256;10.414;2022-07-29T05:17:24;101014.09;;;22.91;43.08
70240;BME280;57629;52.256;10.414;2022-07-29T05:18:26;101007.09;;;22.90;43.13
70240;BME280;57629;52.256;10.414;2022-07-29T05:19:27;101010.59;;;22.91;43.03
70240;BME280;57629;52.256;10.414;2022-07-29T05:20:30;101013.28;;;22.91;43.05
70240;BME280;57629;52.256;10.414;2022-07-29T05:21:30;101014.09;;;22.91;42.94
70240;BME280;57629;52.256;10.414;2022-07-29T05:22:31;101012.44;;;22.90;43.11
70240;BME280;57629;52.256;10.414;2022-07-29T05:23:32;101007.91;;;22.91;43.04
70240;BME280;57629;52.256;10.414;2022-07-29T05:24:32;101014.09;;;22.91;43.11